createdAt,value
2023-02-04T00:03:55.846Z,100284.41
2023-02-04T00:09:02.268Z,100288.59
2023-02-04T00:14:10.247Z,100290.28
2023-02-04T00:19:17.439Z,100326.13
2023-02-04T00:24:23.504Z,100334.66
2023-02-04T00:45:45.754Z,100412.41
2023-02-04T00:50:53.565Z,100424.22
2023-02-04T00:56:00.212Z,100441.25
2023-02-04T01:01:08.820Z,100468.56
2023-02-04T01:06:14.974Z,100468.59
2023-02-04T01:11:21.682Z,100492.47
2023-02-04T01:16:29.498Z,100512.06
2023-02-04T01:21:35.868Z,100529.22
2023-02-04T01:26:42.437Z,100548.06
2023-02-04T01:31:52.488Z,100565.19
2023-02-04T01:37:01.143Z,100579.72
2023-02-04T01:42:07.908Z,100596.00
2023-02-04T01:47:16.006Z,100613.94
2023-02-04T01:52:23.503Z,100630.22
2023-02-04T01:57:30.389Z,100648.00
2023-02-04T02:02:45.054Z,100684.72
2023-02-04T02:07:52.642Z,100696.72
2023-02-04T02:12:59.547Z,100717.22
2023-02-04T02:18:07.501Z,100743.75
2023-02-04T02:23:23.999Z,100764.31
2023-02-04T02:28:32.165Z,100783.88
2023-02-04T02:33:39.312Z,100802.72
2023-02-04T02:38:45.816Z,100816.41
2023-02-04T02:43:53.743Z,100827.50
2023-02-04T02:49:00.380Z,100832.63
2023-02-04T02:54:07.270Z,100857.44
2023-02-04T02:59:19.688Z,100883.09
2023-02-04T03:04:26.681Z,100902.72
2023-02-04T03:09:33.137Z,100926.69
2023-02-04T03:14:41.144Z,100948.06
2023-02-04T03:19:47.371Z,100961.63
2023-02-04T03:24:53.735Z,100976.91
2023-02-04T03:30:01.526Z,100986.19
2023-02-04T03:35:10.208Z,100994.53
2023-02-04T03:40:17.148Z,101018.91
2023-02-04T03:45:25.100Z,101042.69
2023-02-04T03:50:33.436Z,101069.03
2023-02-04T03:55:40.081Z,101081.75
2023-02-04T04:00:47.756Z,101109.81
2023-02-04T04:05:54.035Z,101114.06
2023-02-04T04:11:00.099Z,101138.88
2023-02-04T04:16:09.397Z,101150.13
2023-02-04T04:21:15.583Z,101166.44
2023-02-04T04:26:21.639Z,101176.03
2023-02-04T04:31:29.373Z,101199.31
2023-02-04T04:36:35.718Z,101213.94
2023-02-04T04:41:41.922Z,101236.28
2023-02-04T04:46:49.509Z,101236.25
2023-02-04T04:51:56.084Z,101244.91
2023-02-04T04:57:02.304Z,101261.19
2023-02-04T05:02:10.089Z,101287.59
2023-02-04T05:07:16.383Z,101301.19
2023-02-04T05:12:23.034Z,101324.19
2023-02-04T05:17:31.312Z,101333.50
2023-02-04T05:22:37.862Z,101350.31
2023-02-04T05:27:44.360Z,101374.69
2023-02-04T05:32:52.160Z,101381.31
2023-02-04T05:37:58.497Z,101408.66
2023-02-04T05:43:05.204Z,101430.63
2023-02-04T05:48:12.877Z,101448.97
2023-02-04T05:53:19.110Z,101472.28
2023-02-04T05:58:25.386Z,101486.31
2023-02-04T06:03:33.918Z,101502.72
2023-02-04T06:08:40.532Z,101524.03
2023-02-04T06:13:46.831Z,101537.44
2023-02-04T06:18:54.594Z,101549.00
2023-02-04T06:24:00.782Z,101557.66
2023-02-04T06:29:07.073Z,101572.00
2023-02-04T06:34:14.865Z,101588.81
2023-02-04T06:39:21.387Z,101595.50
2023-02-04T06:44:27.669Z,101608.09
2023-02-04T06:49:36.065Z,101625.81
2023-02-04T06:54:42.178Z,101636.50
2023-02-04T06:59:48.494Z,101657.81
2023-02-04T07:04:56.185Z,101666.25
2023-02-04T07:10:02.659Z,101686.91
2023-02-04T07:15:10.230Z,101698.59
2023-02-04T07:20:18.706Z,101711.47
2023-02-04T07:25:24.888Z,101709.97
2023-02-04T07:30:31.505Z,101720.88
2023-02-04T07:35:39.588Z,101737.91
2023-02-04T07:40:46.512Z,101748.19
2023-02-04T07:45:53.071Z,101759.03
2023-02-04T07:51:00.806Z,101774.13
2023-02-04T07:56:07.564Z,101778.88
2023-02-04T08:01:14.223Z,101787.78
2023-02-04T08:06:21.939Z,101791.13
2023-02-04T08:11:28.476Z,101797.88
2023-02-04T08:16:34.575Z,101802.03
2023-02-04T08:21:42.283Z,101818.81
2023-02-04T08:26:48.373Z,101827.84
2023-02-04T08:31:54.790Z,101831.00
2023-02-04T08:37:02.492Z,101837.00
2023-02-04T08:42:08.556Z,101844.81
2023-02-04T08:47:15.022Z,101854.00
2023-02-04T08:52:22.750Z,101852.41
2023-02-04T08:57:29.210Z,101864.25
2023-02-04T09:02:35.527Z,101865.06
2023-02-04T09:07:43.511Z,101863.31
2023-02-04T09:12:49.854Z,101879.47
2023-02-04T09:18:04.906Z,101879.75
2023-02-04T09:23:13.580Z,101885.53
2023-02-04T09:28:20.260Z,101899.41
2023-02-04T09:33:26.906Z,101903.72
2023-02-04T09:38:34.601Z,101915.03
2023-02-04T09:43:45.846Z,101928.28
2023-02-04T09:48:53.864Z,101936.09
2023-02-04T09:54:10.500Z,101945.63
2023-02-04T09:59:19.272Z,101953.34
2023-02-04T10:04:26.443Z,101957.88
2023-02-04T10:09:35.448Z,101952.34
2023-02-04T10:14:42.550Z,101957.38
2023-02-04T10:19:49.203Z,101960.03
2023-02-04T10:24:57.260Z,101958.97
2023-02-04T10:30:03.854Z,101958.25
2023-02-04T10:35:18.500Z,101960.66
2023-02-04T10:40:33.870Z,101967.66
2023-02-04T10:45:41.072Z,101966.94
2023-02-04T10:50:49.035Z,101965.97
2023-02-04T10:55:57.987Z,101963.56
2023-02-04T11:01:03.931Z,101969.66
2023-02-04T11:06:15.247Z,101981.91
2023-02-04T11:11:26.000Z,101981.25
2023-02-04T11:16:36.005Z,101986.63
2023-02-04T11:21:47.825Z,101985.22
2023-02-04T11:27:09.724Z,101988.66
2023-02-04T11:32:33.481Z,101999.41
2023-02-04T11:37:42.836Z,102002.25
2023-02-04T11:42:51.089Z,101996.00
2023-02-04T11:48:01.972Z,102004.97
2023-02-04T11:53:12.125Z,102001.59
2023-02-04T11:58:22.754Z,101993.44
2023-02-04T12:03:32.051Z,101986.47
2023-02-04T12:08:39.180Z,101991.41
2023-02-04T12:13:53.121Z,101989.59
2023-02-04T12:18:59.584Z,101986.91
2023-02-04T12:24:06.413Z,101995.72
2023-02-04T12:29:14.215Z,102004.91
2023-02-04T12:34:20.587Z,102009.22
2023-02-04T12:39:26.956Z,102008.44
2023-02-04T12:44:35.986Z,102012.59
2023-02-04T12:49:42.313Z,102016.22
2023-02-04T12:54:48.642Z,102013.00
2023-02-04T12:59:59.929Z,102020.69
2023-02-04T13:05:07.597Z,102022.63
2023-02-04T13:10:16.010Z,102033.19
2023-02-04T13:15:23.780Z,102034.59
2023-02-04T13:20:30.033Z,102044.84
2023-02-04T13:25:36.389Z,102047.41
2023-02-04T13:30:44.186Z,102043.97
2023-02-04T13:35:50.688Z,102056.84
2023-02-04T13:40:57.250Z,102059.53
2023-02-04T13:46:07.432Z,102067.47
2023-02-04T13:51:13.919Z,102072.69
2023-02-04T13:56:20.249Z,102071.56
2023-02-04T14:01:28.666Z,102075.31
2023-02-04T14:06:38.757Z,102083.53
2023-02-04T14:11:45.684Z,102091.69
2023-02-04T14:16:53.944Z,102096.50
2023-02-04T14:22:00.664Z,102103.31
2023-02-04T14:27:08.212Z,102115.31
2023-02-04T14:32:17.503Z,102110.19
2023-02-04T14:37:28.812Z,102116.84
2023-02-04T14:42:36.314Z,102113.50
2023-02-04T14:47:45.279Z,102128.72
2023-02-04T14:52:53.765Z,102130.19
2023-02-04T14:58:00.836Z,102138.53
2023-02-04T15:03:10.228Z,102139.91
2023-02-04T15:08:16.649Z,102147.44
2023-02-04T15:13:23.484Z,102153.00
2023-02-04T15:18:32.505Z,102165.97
2023-02-04T15:23:38.588Z,102168.88
2023-02-04T15:28:45.501Z,102166.81
2023-02-04T15:33:53.532Z,102180.28
2023-02-04T15:39:00.093Z,102188.50
2023-02-04T15:44:07.426Z,102190.03
2023-02-04T15:49:15.790Z,102198.19
2023-02-04T15:54:24.009Z,102210.84
2023-02-04T15:59:31.852Z,102213.72
2023-02-04T16:04:41.883Z,102223.88
2023-02-04T16:09:48.363Z,102220.44
2023-02-04T16:14:55.079Z,102231.31
2023-02-04T16:20:05.707Z,102232.59
2023-02-04T16:25:13.107Z,102238.25
2023-02-04T16:30:20.741Z,102248.41
2023-02-04T16:35:30.173Z,102260.81
2023-02-04T16:40:37.365Z,102263.56
2023-02-04T16:45:44.995Z,102268.44
2023-02-04T16:50:53.964Z,102279.13
2023-02-04T16:56:01.149Z,102290.28
2023-02-04T17:01:08.352Z,102288.59
2023-02-04T17:06:17.403Z,102292.53
2023-02-04T17:11:33.357Z,102301.81
2023-02-04T17:16:44.060Z,102301.59
2023-02-04T17:21:52.000Z,102292.75
2023-02-04T17:26:59.615Z,102301.09
2023-02-04T17:32:08.118Z,102302.81
2023-02-04T17:37:17.627Z,102306.56
2023-02-04T17:42:26.079Z,102313.53
2023-02-04T17:47:35.044Z,102318.13
2023-02-04T17:52:48.083Z,102331.09
2023-02-04T17:57:57.009Z,102336.19
2023-02-04T18:03:04.736Z,102345.69
2023-02-04T18:08:21.902Z,102344.63
2023-02-04T18:13:35.774Z,102348.88
2023-02-04T18:18:44.265Z,102359.22
2023-02-04T18:24:18.690Z,102372.28
2023-02-04T18:29:37.001Z,102378.03
2023-02-04T18:34:46.804Z,102385.59
2023-02-04T18:39:58.562Z,102381.94
2023-02-04T18:45:23.498Z,102396.59
2023-02-04T18:50:33.400Z,102398.94
2023-02-04T18:55:44.686Z,102408.13
2023-02-04T19:00:58.410Z,102421.38
2023-02-04T19:06:26.144Z,102417.75
2023-02-04T19:11:41.386Z,102419.72
2023-02-04T19:16:51.077Z,102425.72
2023-02-04T19:21:58.430Z,102425.09
2023-02-04T19:27:34.111Z,102442.31
2023-02-04T19:32:52.726Z,102438.69
2023-02-04T19:38:03.206Z,102440.91
2023-02-04T19:43:25.172Z,102454.75
2023-02-04T19:48:38.801Z,102449.09
2023-02-04T19:53:52.355Z,102455.00
2023-02-04T19:59:28.680Z,102468.47
2023-02-04T20:04:45.453Z,102463.91
2023-02-04T20:10:00.785Z,102480.28
2023-02-04T20:15:24.398Z,102484.66
2023-02-04T20:20:33.861Z,102492.50
2023-02-04T20:25:47.664Z,102496.72
2023-02-04T20:31:02.420Z,102508.38
2023-02-04T20:36:43.316Z,102511.44
2023-02-04T20:41:50.106Z,102523.81
2023-02-04T20:47:13.546Z,102531.50
2023-02-04T20:53:07.310Z,102533.75
2023-02-04T20:58:21.954Z,102534.56
2023-02-04T21:03:37.102Z,102544.31
2023-02-04T21:08:46.456Z,102558.56
2023-02-04T21:14:01.292Z,102569.94
2023-02-04T21:19:10.393Z,102561.59
2023-02-04T21:24:17.850Z,102582.69
2023-02-04T21:29:26.468Z,102576.72
2023-02-04T21:34:35.610Z,102581.94
2023-02-04T21:39:42.986Z,102585.06
2023-02-04T21:44:49.452Z,102594.78
2023-02-04T21:50:01.267Z,102599.59
2023-02-04T21:55:11.608Z,102608.84
2023-02-04T22:00:23.076Z,102615.03
2023-02-04T22:05:31.172Z,102616.19
2023-02-04T22:10:38.039Z,102620.56
2023-02-04T22:15:44.792Z,102628.28
2023-02-04T22:20:53.162Z,102631.19
2023-02-04T22:25:59.708Z,102639.22
2023-02-04T22:31:07.841Z,102646.41
2023-02-04T22:36:15.892Z,102645.47
2023-02-04T22:41:22.409Z,102648.09
2023-02-04T22:46:30.025Z,102659.75
2023-02-04T22:51:37.878Z,102660.97
2023-02-04T22:56:44.078Z,102665.44
2023-02-04T23:01:50.507Z,102685.97
2023-02-04T23:06:58.539Z,102698.50
2023-02-04T23:12:13.122Z,102702.16
2023-02-04T23:17:21.155Z,102702.16
2023-02-04T23:22:29.107Z,102707.84
2023-02-04T23:27:35.637Z,102708.91
2023-02-04T23:32:42.501Z,102714.00
2023-02-04T23:37:50.215Z,102709.09
2023-02-04T23:42:56.319Z,102710.88
2023-02-04T23:48:02.565Z,102713.91
2023-02-04T23:53:10.290Z,102717.56
2023-02-04T23:58:16.503Z,102716.06
